createdAt,value
2023-01-30T00:02:37.875Z,8.85
2023-01-30T00:05:40.712Z,8.32
2023-01-30T00:08:43.245Z,9.13
2023-01-30T00:11:46.819Z,9.37
2023-01-30T00:14:49.355Z,7.45
2023-01-30T00:17:52.029Z,8.25
2023-01-30T00:20:58.936Z,7.87
2023-01-30T00:24:02.006Z,8.80
2023-01-30T00:27:04.416Z,8.70
2023-01-30T00:30:08.034Z,8.25
2023-01-30T00:33:11.259Z,8.60
2023-01-30T00:36:14.037Z,8.70
2023-01-30T00:39:16.580Z,8.37
2023-01-30T00:42:38.156Z,8.53
2023-01-30T00:46:01.407Z,8.43
2023-01-30T00:49:04.188Z,7.70
2023-01-30T00:52:06.916Z,9.07
2023-01-30T00:55:09.781Z,9.43
2023-01-30T00:58:13.196Z,9.20
2023-01-30T01:01:15.901Z,9.07
2023-01-30T01:04:18.358Z,8.18
2023-01-30T01:07:21.386Z,7.85
2023-01-30T01:10:24.435Z,6.73
2023-01-30T01:13:27.469Z,7.77
2023-01-30T01:16:31.355Z,7.62
2023-01-30T01:19:34.675Z,8.13
2023-01-30T01:22:37.009Z,7.97
2023-01-30T01:25:39.746Z,7.73
2023-01-30T01:28:42.220Z,7.47
2023-01-30T01:31:46.621Z,8.13
2023-01-30T01:34:51.292Z,7.55
2023-01-30T01:37:54.987Z,8.32
2023-01-30T01:41:02.406Z,8.67
2023-01-30T01:44:10.701Z,8.27
2023-01-30T01:47:14.439Z,8.25
2023-01-30T01:50:27.171Z,7.95
2023-01-30T01:53:47.573Z,8.02
2023-01-30T01:56:50.646Z,7.67
2023-01-30T02:00:15.840Z,8.77
2023-01-30T02:03:23.997Z,7.65
2023-01-30T02:06:26.546Z,8.45
2023-01-30T02:09:29.257Z,8.95
2023-01-30T02:12:33.833Z,7.93
2023-01-30T02:15:37.232Z,8.47
2023-01-30T02:18:42.201Z,8.65
2023-01-30T02:22:15.772Z,8.20
2023-01-30T02:25:40.215Z,8.52
2023-01-30T02:28:52.057Z,8.53
2023-01-30T02:31:54.851Z,8.07
2023-01-30T02:35:20.487Z,8.20
2023-01-30T02:38:41.539Z,9.05
2023-01-30T02:41:48.615Z,8.68
2023-01-30T02:45:22.427Z,9.27
2023-01-30T02:48:38.015Z,7.70
2023-01-30T02:51:43.215Z,8.48
2023-01-30T02:54:47.692Z,8.20
2023-01-30T02:57:50.677Z,9.65
2023-01-30T03:01:28.303Z,9.93
2023-01-30T03:04:39.863Z,9.40
2023-01-30T03:07:48.563Z,8.15
2023-01-30T03:11:05.070Z,7.75
2023-01-30T03:14:33.704Z,8.77
2023-01-30T03:17:37.818Z,8.13
2023-01-30T03:20:41.379Z,8.10
2023-01-30T03:23:47.478Z,9.20
2023-01-30T03:26:58.862Z,8.52
2023-01-30T03:30:01.728Z,8.90
2023-01-30T03:33:04.236Z,8.63
2023-01-30T03:36:07.429Z,8.20
2023-01-30T03:39:10.498Z,9.63
2023-01-30T03:42:13.743Z,9.52
2023-01-30T03:45:16.576Z,9.73
2023-01-30T03:48:19.596Z,8.90
2023-01-30T03:51:22.771Z,8.17
2023-01-30T03:54:25.512Z,9.18
2023-01-30T03:57:29.449Z,9.60
2023-01-30T04:00:32.460Z,9.65
2023-01-30T04:03:35.679Z,7.97
2023-01-30T04:06:39.845Z,9.50
2023-01-30T04:09:43.368Z,10.13
2023-01-30T04:12:47.212Z,9.82
2023-01-30T04:15:51.139Z,10.20
2023-01-30T04:18:54.753Z,9.57
2023-01-30T04:21:59.836Z,10.03
2023-01-30T04:25:02.919Z,11.57
2023-01-30T04:28:05.996Z,10.18
2023-01-30T04:31:08.904Z,10.65
2023-01-30T04:34:11.756Z,10.57
2023-01-30T04:37:15.096Z,10.23
2023-01-30T04:40:18.960Z,10.23
2023-01-30T04:43:22.899Z,10.07
2023-01-30T04:46:28.149Z,10.35
2023-01-30T04:49:31.186Z,9.57
2023-01-30T04:52:34.056Z,9.77
2023-01-30T04:55:37.225Z,10.82
2023-01-30T04:58:40.479Z,10.43
2023-01-30T05:01:43.677Z,9.70
2023-01-30T05:04:50.040Z,9.77
2023-01-30T05:07:53.104Z,9.70
2023-01-30T05:10:58.305Z,10.02
2023-01-30T05:14:00.997Z,10.32
2023-01-30T05:17:05.440Z,9.93
2023-01-30T05:20:10.730Z,9.73
2023-01-30T05:23:13.617Z,8.90
2023-01-30T05:26:16.480Z,9.27
2023-01-30T05:29:19.316Z,10.38
2023-01-30T05:32:21.723Z,9.95
2023-01-30T05:35:24.435Z,9.60
2023-01-30T05:38:27.635Z,10.23
2023-01-30T05:41:32.595Z,10.07
2023-01-30T05:44:35.093Z,10.50
2023-01-30T05:47:37.779Z,10.70
2023-01-30T05:50:40.243Z,9.90
2023-01-30T05:53:43.102Z,10.50
2023-01-30T05:56:49.995Z,10.35
2023-01-30T05:59:52.983Z,11.07
2023-01-30T06:02:55.378Z,9.65
2023-01-30T06:05:58.486Z,9.97
2023-01-30T06:09:00.951Z,11.03
2023-01-30T06:12:04.391Z,11.73
2023-01-30T06:15:07.226Z,10.10
2023-01-30T06:18:12.871Z,10.68
2023-01-30T06:21:16.453Z,10.60
2023-01-30T06:24:19.262Z,11.13
2023-01-30T06:27:21.720Z,10.05
2023-01-30T06:30:24.546Z,11.35
2023-01-30T06:33:27.273Z,10.25
2023-01-30T06:36:30.252Z,9.63
2023-01-30T06:39:32.755Z,8.77
2023-01-30T06:42:35.636Z,8.48
2023-01-30T06:45:38.110Z,9.55
2023-01-30T06:48:40.909Z,9.75
2023-01-30T06:51:43.615Z,10.23
2023-01-30T06:54:49.172Z,8.27
2023-01-30T06:58:03.964Z,10.20
2023-01-30T07:01:06.941Z,10.02
2023-01-30T07:04:09.408Z,10.52
2023-01-30T07:07:12.542Z,10.20
2023-01-30T07:10:14.866Z,9.10
2023-01-30T07:13:17.568Z,11.18
2023-01-30T07:16:20.427Z,10.02
2023-01-30T07:19:23.325Z,10.43
2023-01-30T07:22:26.004Z,9.80
2023-01-30T07:25:29.414Z,9.93
2023-01-30T07:28:31.972Z,9.55
2023-01-30T07:31:34.708Z,9.40
2023-01-30T07:34:37.243Z,9.82
2023-01-30T07:37:39.909Z,9.70
2023-01-30T07:40:42.576Z,9.67
2023-01-30T07:43:45.325Z,10.70
2023-01-30T07:46:47.803Z,9.50
2023-01-30T07:49:50.496Z,9.23
2023-01-30T07:52:53.348Z,10.00
2023-01-30T07:55:56.234Z,11.57
2023-01-30T07:58:58.841Z,11.57
2023-01-30T08:02:01.494Z,10.80
2023-01-30T08:05:06.267Z,10.38
2023-01-30T08:08:08.784Z,11.73
2023-01-30T08:11:11.730Z,10.57
2023-01-30T08:14:14.365Z,9.07
2023-01-30T08:17:17.064Z,8.13
2023-01-30T08:20:19.950Z,9.25
2023-01-30T08:23:23.075Z,8.87
2023-01-30T08:26:25.572Z,9.53
2023-01-30T08:29:29.063Z,9.98
2023-01-30T08:32:31.925Z,8.98
2023-01-30T08:35:34.649Z,10.52
2023-01-30T08:38:37.226Z,9.83
2023-01-30T08:41:43.049Z,9.27
2023-01-30T08:44:46.168Z,7.87
2023-01-30T08:47:49.056Z,7.15
2023-01-30T08:50:55.395Z,9.88
2023-01-30T08:53:58.633Z,10.07
2023-01-30T08:57:01.043Z,8.23
2023-01-30T09:00:05.626Z,8.40
2023-01-30T09:03:08.797Z,7.80
2023-01-30T09:06:13.009Z,8.48
2023-01-30T09:09:15.663Z,6.77
2023-01-30T09:12:18.347Z,7.57
2023-01-30T09:15:22.470Z,7.10
2023-01-30T09:18:26.114Z,6.40
2023-01-30T09:21:28.845Z,8.80
2023-01-30T09:24:31.746Z,8.43
2023-01-30T09:27:34.422Z,10.93
2023-01-30T09:30:37.732Z,9.45
2023-01-30T09:33:40.508Z,8.30
2023-01-30T09:36:43.485Z,10.30
2023-01-30T09:39:45.970Z,10.67
2023-01-30T09:43:24.030Z,10.83
2023-01-30T09:47:02.952Z,8.70
2023-01-30T09:50:46.650Z,11.15
2023-01-30T09:54:02.685Z,9.65
2023-01-30T09:57:21.622Z,10.27
2023-01-30T10:00:38.554Z,9.43
2023-01-30T10:03:55.493Z,10.88
2023-01-30T10:07:43.118Z,10.05
2023-01-30T10:11:08.973Z,11.63
2023-01-30T10:14:34.213Z,12.03
2023-01-30T10:17:46.154Z,11.07
2023-01-30T10:20:48.672Z,10.45
2023-01-30T10:23:59.513Z,10.32
2023-01-30T10:27:04.836Z,11.15
2023-01-30T10:30:14.241Z,11.07
2023-01-30T10:33:28.801Z,11.83
2023-01-30T10:36:51.951Z,10.95
2023-01-30T10:40:01.235Z,11.70
2023-01-30T10:43:48.163Z,11.55
2023-01-30T10:46:50.473Z,10.45
2023-01-30T10:49:58.886Z,10.70
2023-01-30T10:53:09.430Z,9.23
2023-01-30T10:56:18.288Z,9.88
2023-01-30T10:59:30.253Z,10.32
2023-01-30T11:02:58.609Z,8.70
2023-01-30T11:06:21.029Z,7.30
2023-01-30T11:10:00.645Z,8.93
2023-01-30T11:13:33.666Z,10.57
2023-01-30T11:16:53.964Z,8.45
2023-01-30T11:20:08.517Z,10.27
2023-01-30T11:23:36.307Z,10.17
2023-01-30T11:26:47.062Z,9.35
2023-01-30T11:30:03.334Z,7.47
2023-01-30T11:33:12.925Z,8.93
2023-01-30T11:36:31.932Z,8.33
2023-01-30T11:39:35.099Z,9.77
2023-01-30T11:42:49.511Z,10.05
2023-01-30T11:45:52.707Z,9.05
2023-01-30T11:49:46.387Z,9.85
2023-01-30T11:52:38.999Z,9.87
2023-01-30T11:55:49.951Z,10.00
2023-01-30T11:59:08.121Z,11.12
2023-01-30T12:02:29.384Z,11.57
2023-01-30T12:05:35.654Z,10.07
2023-01-30T12:08:42.926Z,8.03
2023-01-30T12:11:47.918Z,9.93
2023-01-30T12:14:53.469Z,9.77
2023-01-30T12:18:13.973Z,10.35
2023-01-30T12:21:16.310Z,10.23
2023-01-30T12:24:39.420Z,8.53
2023-01-30T12:28:02.378Z,8.87
2023-01-30T12:31:16.493Z,9.90
2023-01-30T12:34:19.520Z,10.82
2023-01-30T12:37:38.190Z,8.30
2023-01-30T12:40:54.011Z,11.97
2023-01-30T12:44:30.735Z,10.30
2023-01-30T12:48:10.434Z,9.77
2023-01-30T12:51:49.363Z,9.88
2023-01-30T12:55:06.746Z,9.93
2023-01-30T12:58:49.777Z,11.97
2023-01-30T13:02:02.317Z,9.20
2023-01-30T13:05:17.554Z,9.25
2023-01-30T13:08:57.581Z,9.93
2023-01-30T13:12:03.066Z,10.63
2023-01-30T13:15:24.288Z,9.97
2023-01-30T13:18:41.659Z,10.30
2023-01-30T13:22:04.156Z,9.35
2023-01-30T13:25:31.735Z,9.98
2023-01-30T13:28:48.178Z,9.90
2023-01-30T13:31:54.851Z,8.83
2023-01-30T13:34:59.756Z,9.20
2023-01-30T13:38:04.718Z,8.65
2023-01-30T13:41:13.509Z,8.30
2023-01-30T13:44:27.754Z,7.85
2023-01-30T13:47:42.771Z,9.77
2023-01-30T13:51:08.678Z,8.97
2023-01-30T13:54:16.920Z,9.30
2023-01-30T13:57:44.004Z,8.63
2023-01-30T14:00:55.103Z,7.85
2023-01-30T14:04:36.887Z,9.20
2023-01-30T14:07:41.793Z,8.40
2023-01-30T14:10:44.830Z,8.07
2023-01-30T14:13:55.754Z,8.75
2023-01-30T14:17:10.122Z,7.95
2023-01-30T14:20:16.351Z,7.63
2023-01-30T14:23:21.678Z,7.73
2023-01-30T14:26:49.144Z,7.85
2023-01-30T14:29:53.862Z,8.07
2023-01-30T14:32:57.070Z,8.52
2023-01-30T14:36:02.850Z,10.00
2023-01-30T14:39:37.822Z,8.87
2023-01-30T14:42:40.607Z,9.20
2023-01-30T14:45:53.967Z,9.15
2023-01-30T14:49:18.015Z,9.85
2023-01-30T14:52:36.446Z,6.33
2023-01-30T14:55:39.219Z,8.57
2023-01-30T14:58:56.807Z,8.52
2023-01-30T15:02:27.318Z,8.38
2023-01-30T15:05:37.529Z,7.72
2023-01-30T15:08:45.037Z,9.33
2023-01-30T15:11:55.934Z,8.97
2023-01-30T15:15:18.366Z,9.40
2023-01-30T15:19:09.171Z,9.23
2023-01-30T15:22:11.892Z,8.93
2023-01-30T15:25:33.067Z,9.67
2023-01-30T15:28:56.960Z,8.93
2023-01-30T15:32:02.475Z,9.57
2023-01-30T15:35:11.230Z,12.02
2023-01-30T15:38:30.430Z,10.25
2023-01-30T15:41:40.456Z,8.67
2023-01-30T15:44:55.808Z,8.30
2023-01-30T15:48:20.653Z,7.72
2023-01-30T15:51:28.023Z,8.90
2023-01-30T15:54:31.123Z,9.57
2023-01-30T15:57:40.068Z,9.47
2023-01-30T16:00:52.665Z,9.27
2023-01-30T16:03:57.898Z,9.55
2023-01-30T16:07:14.578Z,8.60
2023-01-30T16:10:20.298Z,8.75
2023-01-30T16:13:24.502Z,8.13
2023-01-30T16:16:28.543Z,8.47
2023-01-30T16:19:33.235Z,8.05
2023-01-30T16:22:36.196Z,7.97
2023-01-30T16:25:38.691Z,8.73
2023-01-30T16:28:41.526Z,9.60
2023-01-30T16:31:47.806Z,8.77
2023-01-30T16:34:50.759Z,8.60
2023-01-30T16:37:55.259Z,7.78
2023-01-30T16:40:59.667Z,9.02
2023-01-30T16:44:22.034Z,6.80
2023-01-30T16:47:31.565Z,7.60
2023-01-30T16:50:34.027Z,9.07
2023-01-30T16:53:38.023Z,8.40
2023-01-30T16:56:48.064Z,8.30
2023-01-30T16:59:50.933Z,8.43
2023-01-30T17:02:58.763Z,9.43
2023-01-30T17:06:07.428Z,9.35
2023-01-30T17:09:43.679Z,9.27
2023-01-30T17:12:49.908Z,7.68
2023-01-30T17:15:52.364Z,8.20
2023-01-30T17:18:58.117Z,8.33
2023-01-30T17:22:03.771Z,8.90
2023-01-30T17:25:17.320Z,7.37
2023-01-30T17:28:23.426Z,9.10
2023-01-30T17:31:27.547Z,9.73
2023-01-30T17:34:30.037Z,8.63
2023-01-30T17:37:32.851Z,6.97
2023-01-30T17:40:39.158Z,7.35
2023-01-30T17:43:41.946Z,7.62
2023-01-30T17:46:47.508Z,7.50
2023-01-30T17:49:50.325Z,7.70
2023-01-30T17:52:52.790Z,7.47
2023-01-30T17:55:55.524Z,7.80
2023-01-30T17:58:58.214Z,7.25
2023-01-30T18:02:01.193Z,7.60
2023-01-30T18:05:04.421Z,8.20
2023-01-30T18:08:07.041Z,7.12
2023-01-30T18:11:11.973Z,7.55
2023-01-30T18:14:14.748Z,7.47
2023-01-30T18:17:18.104Z,7.40
2023-01-30T18:20:21.141Z,6.47
2023-01-30T18:23:26.751Z,7.22
2023-01-30T18:26:30.124Z,6.90
2023-01-30T18:29:33.238Z,6.18
2023-01-30T18:32:40.694Z,6.50
2023-01-30T18:35:49.790Z,6.67
2023-01-30T18:38:53.635Z,7.18
2023-01-30T18:41:56.347Z,7.03
2023-01-30T18:44:59.001Z,7.22
2023-01-30T18:48:02.016Z,7.13
2023-01-30T18:51:09.453Z,6.50
2023-01-30T18:54:12.360Z,6.53
2023-01-30T18:57:14.849Z,6.60
2023-01-30T19:00:19.643Z,7.15
2023-01-30T19:03:22.397Z,7.07
2023-01-30T19:06:25.764Z,7.23
2023-01-30T19:09:35.278Z,7.10
2023-01-30T19:13:00.330Z,5.43
2023-01-30T19:16:04.001Z,6.50
2023-01-30T19:19:09.099Z,5.13
2023-01-30T19:22:11.449Z,5.07
2023-01-30T19:25:14.182Z,5.93
2023-01-30T19:28:16.587Z,5.15
2023-01-30T19:31:21.654Z,5.45
2023-01-30T19:34:24.247Z,4.75
2023-01-30T19:37:26.921Z,3.57
2023-01-30T19:40:29.365Z,3.62
2023-01-30T19:43:32.174Z,3.15
2023-01-30T19:46:35.052Z,3.30
2023-01-30T19:49:38.109Z,3.35
2023-01-30T19:52:40.887Z,3.60
2023-01-30T19:55:49.995Z,2.70
2023-01-30T19:58:55.101Z,3.03
2023-01-30T20:01:58.032Z,3.00
2023-01-30T20:05:02.185Z,2.95
2023-01-30T20:08:06.112Z,3.73
2023-01-30T20:11:13.083Z,2.67
2023-01-30T20:14:15.782Z,3.67
2023-01-30T20:17:18.414Z,4.15
2023-01-30T20:20:21.529Z,3.47
2023-01-30T20:23:24.362Z,3.13
2023-01-30T20:26:31.098Z,3.05
2023-01-30T20:29:34.654Z,3.08
2023-01-30T20:32:37.316Z,2.60
2023-01-30T20:35:40.077Z,3.30
2023-01-30T20:38:44.370Z,3.07
2023-01-30T20:41:47.731Z,3.00
2023-01-30T20:44:50.237Z,2.40
2023-01-30T20:47:52.985Z,2.58
2023-01-30T20:50:55.342Z,2.83
2023-01-30T20:54:08.295Z,3.07
2023-01-30T20:57:10.803Z,2.72
2023-01-30T21:00:13.835Z,2.80
2023-01-30T21:03:16.279Z,2.70
2023-01-30T21:06:41.388Z,2.70
2023-01-30T21:09:47.279Z,2.47
2023-01-30T21:12:52.060Z,2.30
2023-01-30T21:16:08.437Z,2.60
2023-01-30T21:19:15.148Z,2.12
2023-01-30T21:22:17.907Z,2.78
2023-01-30T21:25:22.045Z,2.63
2023-01-30T21:28:24.564Z,2.80
2023-01-30T21:31:29.773Z,2.70
2023-01-30T21:34:35.165Z,2.85
2023-01-30T21:37:56.993Z,3.10
2023-01-30T21:41:18.375Z,2.70
2023-01-30T21:44:25.524Z,2.67
2023-01-30T21:47:28.250Z,2.65
2023-01-30T21:50:30.971Z,2.62
2023-01-30T21:53:33.547Z,3.17
2023-01-30T21:56:37.024Z,2.80
2023-01-30T21:59:40.172Z,2.42
2023-01-30T22:02:43.054Z,2.47
2023-01-30T22:05:46.251Z,2.70
2023-01-30T22:08:48.612Z,2.78
2023-01-30T22:11:51.347Z,2.53
2023-01-30T22:14:53.991Z,2.80
2023-01-30T22:17:56.873Z,2.55
2023-01-30T22:21:07.641Z,2.47
2023-01-30T22:24:11.744Z,3.33
2023-01-30T22:27:16.452Z,2.37
2023-01-30T22:30:22.185Z,2.45
2023-01-30T22:33:24.758Z,2.50
2023-01-30T22:36:30.224Z,2.37
2023-01-30T22:39:32.676Z,2.60
2023-01-30T22:42:37.539Z,2.43
2023-01-30T22:45:40.003Z,1.90
2023-01-30T22:48:45.334Z,2.47
2023-01-30T22:51:49.070Z,1.95
2023-01-30T22:54:51.809Z,2.30
2023-01-30T22:57:54.630Z,1.50
2023-01-30T23:01:08.246Z,2.05
2023-01-30T23:04:19.509Z,2.10
2023-01-30T23:07:22.313Z,1.50
2023-01-30T23:10:24.670Z,2.40
2023-01-30T23:13:27.385Z,2.03
2023-01-30T23:16:33.456Z,2.17
2023-01-30T23:19:36.692Z,1.55
2023-01-30T23:22:39.074Z,1.80
2023-01-30T23:25:42.521Z,1.87
2023-01-30T23:28:45.920Z,2.03
2023-01-30T23:31:48.895Z,1.75
2023-01-30T23:34:51.745Z,1.80
2023-01-30T23:38:13.049Z,2.00
2023-01-30T23:41:17.971Z,2.12
2023-01-30T23:44:21.038Z,2.00
2023-01-30T23:47:23.437Z,2.03
2023-01-30T23:50:26.416Z,2.00
2023-01-30T23:53:28.977Z,2.20
2023-01-30T23:56:34.088Z,2.37
2023-01-30T23:59:36.383Z,2.23
